createdAt,value
2022-12-29T00:00:23.469Z,92.10
2022-12-29T00:02:54.583Z,93.08
2022-12-29T00:05:33.355Z,93.10
2022-12-29T00:08:05.260Z,91.94
2022-12-29T00:10:38.128Z,92.69
2022-12-29T00:13:37.598Z,91.79
2022-12-29T00:16:10.558Z,91.86
2022-12-29T00:18:41.686Z,92.50
2022-12-29T00:21:32.244Z,92.08
2022-12-29T00:24:26.541Z,91.84
2022-12-29T00:27:18.370Z,92.13
2022-12-29T00:30:04.550Z,91.70
2022-12-29T00:32:57.490Z,92.75
2022-12-29T00:35:29.599Z,92.18
2022-12-29T00:38:27.501Z,92.61
2022-12-29T00:41:17.664Z,92.95
2022-12-29T00:44:04.948Z,93.22
2022-12-29T00:46:38.364Z,92.68
2022-12-29T00:49:39.174Z,92.52
2022-12-29T00:52:19.044Z,93.45
2022-12-29T00:54:53.393Z,92.80
2022-12-29T00:57:26.768Z,93.48
2022-12-29T00:59:57.506Z,93.37
2022-12-29T01:02:26.454Z,94.01
2022-12-29T01:05:10.946Z,93.80
2022-12-29T01:07:40.194Z,93.95
2022-12-29T01:10:14.986Z,93.50
2022-12-29T01:12:48.500Z,93.16
2022-12-29T01:15:26.703Z,94.68
2022-12-29T01:18:04.124Z,95.33
2022-12-29T01:20:45.872Z,95.18
2022-12-29T01:23:16.773Z,94.97
2022-12-29T01:25:52.192Z,94.64
2022-12-29T01:28:26.158Z,94.82
2022-12-29T01:30:57.337Z,94.95
2022-12-29T01:33:26.818Z,95.45
2022-12-29T01:36:04.561Z,95.01
2022-12-29T01:38:36.323Z,95.52
2022-12-29T01:41:07.478Z,95.76
2022-12-29T01:43:42.968Z,95.69
2022-12-29T01:46:19.037Z,95.34
2022-12-29T01:48:56.735Z,94.85
2022-12-29T01:51:31.032Z,95.22
2022-12-29T01:54:08.753Z,95.02
2022-12-29T01:56:40.323Z,94.46
2022-12-29T01:59:21.152Z,95.16
2022-12-29T02:01:51.674Z,95.11
2022-12-29T02:04:32.847Z,95.38
2022-12-29T02:07:11.433Z,95.51
2022-12-29T02:09:40.033Z,95.92
2022-12-29T02:12:12.037Z,95.38
2022-12-29T02:14:49.217Z,95.89
2022-12-29T02:17:28.204Z,95.14
2022-12-29T02:20:38.711Z,95.47
2022-12-29T02:23:39.694Z,95.10
2022-12-29T02:26:28.196Z,95.42
2022-12-29T02:29:23.407Z,95.43
2022-12-29T02:32:08.512Z,96.16
2022-12-29T02:34:45.554Z,96.17
2022-12-29T02:37:24.157Z,96.27
2022-12-29T02:40:03.564Z,95.69
2022-12-29T02:42:38.400Z,95.83
2022-12-29T02:45:12.702Z,96.48
2022-12-29T02:47:50.723Z,96.43
2022-12-29T02:50:30.252Z,95.40
2022-12-29T02:53:07.764Z,96.13
2022-12-29T02:55:37.311Z,95.40
2022-12-29T02:58:21.385Z,96.01
2022-12-29T03:01:34.507Z,96.39
2022-12-29T03:04:29.040Z,95.50
2022-12-29T03:07:04.164Z,95.48
2022-12-29T03:09:41.848Z,96.04
2022-12-29T03:12:29.649Z,95.96
2022-12-29T03:15:20.755Z,96.01
2022-12-29T03:17:55.758Z,96.81
2022-12-29T03:20:43.936Z,97.46
2022-12-29T03:23:13.038Z,97.43
2022-12-29T03:25:50.179Z,96.17
2022-12-29T03:28:35.625Z,96.50
2022-12-29T03:31:16.602Z,96.24
2022-12-29T03:33:48.986Z,96.63
2022-12-29T03:36:31.207Z,96.93
2022-12-29T03:39:04.951Z,96.63
2022-12-29T03:41:45.800Z,96.48
2022-12-29T03:44:20.517Z,97.90
2022-12-29T03:46:49.696Z,97.72
2022-12-29T03:49:19.967Z,98.45
2022-12-29T03:51:55.205Z,97.20
2022-12-29T03:54:28.385Z,97.12
2022-12-29T03:56:59.461Z,97.22
2022-12-29T04:00:14.231Z,97.41
2022-12-29T04:02:52.123Z,98.08
2022-12-29T04:05:26.137Z,98.17
2022-12-29T04:07:58.568Z,98.98
2022-12-29T04:10:27.271Z,98.41
2022-12-29T04:13:06.751Z,98.08
2022-12-29T04:15:38.524Z,98.51
2022-12-29T04:18:08.217Z,98.23
2022-12-29T04:20:51.578Z,98.08
2022-12-29T04:23:21.609Z,98.09
2022-12-29T04:25:53.914Z,98.10
2022-12-29T04:28:22.394Z,98.35
2022-12-29T04:31:15.872Z,99.03
2022-12-29T04:33:50.402Z,99.66
2022-12-29T04:36:27.778Z,99.17
2022-12-29T04:39:05.888Z,98.23
2022-12-29T04:41:48.672Z,99.32
2022-12-29T04:44:31.337Z,99.77
2022-12-29T04:47:15.148Z,99.43
2022-12-29T04:49:50.520Z,98.63
2022-12-29T04:52:56.684Z,99.85
2022-12-29T04:55:33.611Z,99.61
2022-12-29T04:58:16.323Z,100.00
2022-12-29T05:00:50.249Z,100.00
2022-12-29T05:03:31.386Z,100.00
2022-12-29T05:06:02.767Z,100.00
2022-12-29T05:08:31.639Z,100.00
2022-12-29T05:11:09.139Z,99.84
2022-12-29T05:13:41.812Z,99.89
2022-12-29T05:16:11.487Z,100.00
2022-12-29T05:18:41.061Z,100.00
2022-12-29T05:21:11.269Z,100.00
2022-12-29T05:23:42.361Z,100.00
2022-12-29T05:26:16.180Z,100.00
2022-12-29T05:31:54.385Z,99.93
2022-12-29T05:34:26.136Z,100.00
2022-12-29T05:36:57.114Z,100.00
2022-12-29T05:39:34.581Z,100.00
2022-12-29T05:42:24.468Z,99.90
2022-12-29T05:45:03.696Z,99.74
2022-12-29T05:48:04.217Z,100.00
2022-12-29T05:50:58.522Z,100.00
2022-12-29T05:53:37.913Z,100.00
2022-12-29T05:56:10.874Z,100.00
2022-12-29T05:58:53.570Z,100.00
2022-12-29T06:01:29.840Z,100.00
2022-12-29T06:04:01.968Z,100.00
2022-12-29T06:06:36.304Z,100.00
2022-12-29T06:09:07.847Z,100.00
2022-12-29T06:11:39.682Z,100.00
2022-12-29T06:14:14.151Z,100.00
2022-12-29T06:16:45.304Z,99.84
2022-12-29T06:19:24.485Z,99.29
2022-12-29T06:21:54.760Z,98.94
2022-12-29T06:24:41.075Z,98.88
2022-12-29T06:27:09.355Z,100.00
2022-12-29T06:29:47.450Z,99.35
2022-12-29T06:32:23.882Z,99.20
2022-12-29T06:35:12.492Z,99.72
2022-12-29T06:38:00.269Z,100.00
2022-12-29T06:40:30.801Z,100.00
2022-12-29T06:43:18.817Z,100.00
2022-12-29T06:46:10.324Z,100.00
2022-12-29T06:48:44.221Z,100.00
2022-12-29T06:51:21.039Z,100.00
2022-12-29T06:53:54.621Z,100.00
2022-12-29T06:56:24.520Z,100.00
2022-12-29T06:58:53.952Z,100.00
2022-12-29T07:01:32.514Z,100.00
2022-12-29T07:04:11.986Z,100.00
2022-12-29T07:06:45.790Z,100.00
2022-12-29T07:09:24.051Z,100.00
2022-12-29T07:12:11.243Z,100.00
2022-12-29T07:15:01.708Z,100.00
2022-12-29T07:17:35.243Z,100.00
2022-12-29T07:20:13.766Z,100.00
2022-12-29T07:22:44.731Z,100.00
2022-12-29T07:25:15.704Z,100.00
2022-12-29T07:27:47.800Z,100.00
2022-12-29T07:30:19.472Z,100.00
2022-12-29T07:33:03.896Z,100.00
2022-12-29T07:35:44.856Z,100.00
2022-12-29T07:38:19.914Z,100.00
2022-12-29T07:40:49.077Z,100.00
2022-12-29T07:43:17.485Z,100.00
2022-12-29T07:46:53.790Z,100.00
2022-12-29T07:49:16.467Z,100.00
2022-12-29T07:51:48.185Z,100.00
2022-12-29T07:54:20.819Z,100.00
2022-12-29T07:56:52.102Z,100.00
2022-12-29T07:59:27.256Z,100.00
2022-12-29T08:01:59.961Z,100.00
2022-12-29T08:04:31.823Z,100.00
2022-12-29T08:07:08.516Z,100.00
2022-12-29T08:09:40.943Z,100.00
2022-12-29T08:12:21.419Z,100.00
2022-12-29T08:14:54.217Z,100.00
2022-12-29T08:17:24.861Z,100.00
2022-12-29T08:19:54.421Z,100.00
2022-12-29T08:22:27.571Z,100.00
2022-12-29T08:25:01.788Z,100.00
2022-12-29T08:27:39.121Z,100.00
2022-12-29T08:30:12.676Z,100.00
2022-12-29T08:32:43.880Z,100.00
2022-12-29T08:35:26.939Z,100.00
2022-12-29T08:37:58.811Z,100.00
2022-12-29T08:40:28.528Z,100.00
2022-12-29T08:42:57.771Z,100.00
2022-12-29T08:45:27.401Z,100.00
2022-12-29T08:47:58.985Z,100.00
2022-12-29T08:50:36.812Z,100.00
2022-12-29T08:53:14.532Z,100.00
2022-12-29T08:55:44.650Z,100.00
2022-12-29T08:58:16.571Z,100.00
2022-12-29T09:00:49.366Z,100.00
2022-12-29T09:03:45.962Z,100.00
2022-12-29T09:06:22.976Z,100.00
2022-12-29T09:09:02.299Z,100.00
2022-12-29T09:11:30.590Z,100.00
2022-12-29T09:14:01.542Z,100.00
2022-12-29T09:16:33.577Z,100.00
2022-12-29T09:19:06.724Z,100.00
2022-12-29T09:21:37.992Z,100.00
2022-12-29T09:24:09.760Z,100.00
2022-12-29T09:26:46.854Z,100.00
2022-12-29T09:29:21.119Z,100.00
2022-12-29T09:31:50.683Z,100.00
2022-12-29T09:34:20.256Z,100.00
2022-12-29T09:36:55.326Z,100.00
2022-12-29T09:39:24.963Z,100.00
2022-12-29T09:42:03.615Z,100.00
2022-12-29T09:44:47.560Z,100.00
2022-12-29T09:47:20.679Z,100.00
2022-12-29T09:49:54.912Z,100.00
2022-12-29T09:52:34.262Z,100.00
2022-12-29T09:55:13.930Z,100.00
2022-12-29T09:57:47.671Z,100.00
2022-12-29T10:00:23.306Z,100.00
2022-12-29T10:03:00.249Z,100.00
2022-12-29T10:05:45.164Z,100.00
2022-12-29T10:08:27.817Z,100.00
2022-12-29T10:11:04.400Z,100.00
2022-12-29T10:13:44.413Z,100.00
2022-12-29T10:16:22.700Z,100.00
2022-12-29T10:19:27.047Z,100.00
2022-12-29T10:22:09.909Z,100.00
2022-12-29T10:24:53.758Z,100.00
2022-12-29T10:27:34.305Z,100.00
2022-12-29T10:30:08.594Z,100.00
2022-12-29T10:32:46.296Z,100.00
2022-12-29T10:35:24.317Z,100.00
2022-12-29T10:38:03.507Z,100.00
2022-12-29T10:40:45.049Z,100.00
2022-12-29T10:43:23.468Z,100.00
2022-12-29T10:45:52.034Z,100.00
2022-12-29T10:48:30.198Z,100.00
2022-12-29T10:51:12.362Z,100.00
2022-12-29T10:53:46.024Z,100.00
2022-12-29T10:56:27.920Z,100.00
2022-12-29T10:59:06.092Z,100.00
2022-12-29T11:01:39.286Z,100.00
2022-12-29T11:04:24.085Z,100.00
2022-12-29T11:06:52.980Z,100.00
2022-12-29T11:09:42.048Z,100.00
2022-12-29T11:12:32.354Z,100.00
2022-12-29T11:15:17.960Z,100.00
2022-12-29T11:17:58.145Z,100.00
2022-12-29T11:20:33.492Z,100.00
2022-12-29T11:23:05.790Z,100.00
2022-12-29T11:25:37.060Z,100.00
2022-12-29T11:28:19.514Z,100.00
2022-12-29T11:31:04.071Z,100.00
2022-12-29T11:33:34.916Z,100.00
2022-12-29T11:36:11.359Z,100.00
2022-12-29T11:38:50.252Z,100.00
2022-12-29T11:41:26.928Z,100.00
2022-12-29T11:44:04.326Z,100.00
2022-12-29T11:46:44.912Z,100.00
2022-12-29T11:49:31.729Z,100.00
2022-12-29T11:52:08.834Z,100.00
2022-12-29T11:54:47.522Z,100.00
2022-12-29T11:57:19.623Z,100.00
2022-12-29T11:59:59.868Z,100.00
2022-12-29T12:02:54.605Z,100.00
2022-12-29T12:05:28.158Z,100.00
2022-12-29T12:08:13.950Z,100.00
2022-12-29T12:11:00.505Z,100.00
2022-12-29T12:13:49.988Z,100.00
2022-12-29T12:16:27.914Z,100.00
2022-12-29T12:19:14.001Z,100.00
2022-12-29T12:21:46.055Z,100.00
2022-12-29T12:24:38.901Z,100.00
2022-12-29T12:27:20.344Z,100.00
2022-12-29T12:29:57.747Z,100.00
2022-12-29T12:32:45.512Z,100.00
2022-12-29T12:35:22.189Z,100.00
2022-12-29T12:38:13.820Z,100.00
2022-12-29T12:40:57.327Z,100.00
2022-12-29T12:43:44.360Z,100.00
2022-12-29T12:46:23.099Z,100.00
2022-12-29T12:49:15.464Z,100.00
2022-12-29T12:51:48.590Z,100.00
2022-12-29T12:54:36.945Z,100.00
2022-12-29T12:57:16.803Z,100.00
2022-12-29T12:59:57.764Z,100.00
2022-12-29T13:02:39.322Z,100.00
2022-12-29T13:05:30.542Z,100.00
2022-12-29T13:08:14.577Z,100.00
2022-12-29T13:10:53.681Z,100.00
2022-12-29T13:13:55.157Z,100.00
2022-12-29T13:16:36.576Z,100.00
2022-12-29T13:19:16.989Z,100.00
2022-12-29T13:22:07.024Z,100.00
2022-12-29T13:24:50.999Z,100.00
2022-12-29T13:27:25.675Z,100.00
2022-12-29T13:30:08.602Z,100.00
2022-12-29T13:32:54.391Z,100.00
2022-12-29T13:35:32.826Z,100.00
2022-12-29T13:38:10.611Z,100.00
2022-12-29T13:40:45.662Z,100.00
2022-12-29T13:43:17.427Z,100.00
2022-12-29T13:45:55.962Z,100.00
2022-12-29T13:48:35.091Z,100.00
2022-12-29T13:51:08.537Z,100.00
2022-12-29T13:54:05.095Z,100.00
2022-12-29T13:56:44.646Z,100.00
2022-12-29T13:59:23.419Z,100.00
2022-12-29T14:02:04.170Z,100.00
2022-12-29T14:04:36.568Z,100.00
2022-12-29T14:07:13.963Z,100.00
2022-12-29T14:10:04.301Z,100.00
2022-12-29T14:12:37.553Z,100.00
2022-12-29T14:15:25.948Z,100.00
2022-12-29T14:18:19.915Z,100.00
2022-12-29T14:21:00.754Z,100.00
2022-12-29T14:23:45.386Z,100.00
2022-12-29T14:26:39.594Z,100.00
2022-12-29T14:29:45.280Z,100.00
2022-12-29T14:32:49.197Z,100.00
2022-12-29T14:35:48.858Z,100.00
2022-12-29T14:38:32.463Z,100.00
2022-12-29T14:41:29.525Z,100.00
2022-12-29T14:44:04.794Z,100.00
2022-12-29T14:47:03.520Z,100.00
2022-12-29T14:49:46.236Z,100.00
2022-12-29T14:52:22.677Z,100.00
2022-12-29T14:55:23.041Z,100.00
2022-12-29T14:58:15.026Z,100.00
2022-12-29T15:00:44.240Z,100.00
2022-12-29T15:03:22.058Z,100.00
2022-12-29T15:06:03.543Z,100.00
2022-12-29T15:08:44.802Z,100.00
2022-12-29T15:11:26.842Z,100.00
2022-12-29T15:14:34.946Z,100.00
2022-12-29T15:17:14.726Z,100.00
2022-12-29T15:19:44.128Z,100.00
2022-12-29T15:22:15.778Z,100.00
2022-12-29T15:24:53.256Z,100.00
2022-12-29T15:27:22.843Z,100.00
2022-12-29T15:30:05.597Z,100.00
2022-12-29T15:32:47.062Z,100.00
2022-12-29T15:35:40.778Z,100.00
2022-12-29T15:38:17.106Z,100.00
2022-12-29T15:40:59.751Z,100.00
2022-12-29T15:43:56.366Z,100.00
2022-12-29T15:46:27.767Z,100.00
2022-12-29T15:49:05.978Z,100.00
2022-12-29T15:51:41.102Z,100.00
2022-12-29T15:54:20.362Z,100.00
2022-12-29T15:56:50.989Z,100.00
2022-12-29T15:59:31.713Z,100.00
2022-12-29T16:02:10.202Z,100.00
2022-12-29T16:05:16.074Z,100.00
2022-12-29T16:07:42.083Z,100.00
2022-12-29T16:10:27.482Z,100.00
2022-12-29T16:12:59.448Z,100.00
2022-12-29T16:15:38.690Z,100.00
2022-12-29T16:18:16.487Z,100.00
2022-12-29T16:21:02.170Z,100.00
2022-12-29T16:23:36.346Z,100.00
2022-12-29T16:26:21.244Z,100.00
2022-12-29T16:28:52.683Z,100.00
2022-12-29T16:31:34.879Z,100.00
2022-12-29T16:34:17.804Z,100.00
2022-12-29T16:37:07.715Z,100.00
2022-12-29T16:39:48.825Z,100.00
2022-12-29T16:42:57.359Z,100.00
2022-12-29T16:46:08.538Z,100.00
2022-12-29T16:48:41.669Z,100.00
2022-12-29T16:51:19.036Z,100.00
2022-12-29T16:54:02.888Z,100.00
2022-12-29T16:56:38.132Z,100.00
2022-12-29T16:59:09.853Z,100.00
2022-12-29T17:01:43.582Z,100.00
2022-12-29T17:04:15.021Z,100.00
2022-12-29T17:06:55.431Z,100.00
2022-12-29T17:09:32.816Z,100.00
2022-12-29T17:12:10.802Z,100.00
2022-12-29T17:14:49.201Z,100.00
2022-12-29T17:17:21.108Z,100.00
2022-12-29T17:19:53.706Z,100.00
2022-12-29T17:22:26.846Z,100.00
2022-12-29T17:25:17.514Z,100.00
2022-12-29T17:27:50.552Z,100.00
2022-12-29T17:30:28.436Z,100.00
2022-12-29T17:33:05.333Z,100.00
2022-12-29T17:35:36.288Z,100.00
2022-12-29T17:38:06.207Z,100.00
2022-12-29T17:40:39.221Z,100.00
2022-12-29T17:43:15.989Z,100.00
2022-12-29T17:45:52.913Z,100.00
2022-12-29T17:48:24.674Z,100.00
2022-12-29T17:50:55.735Z,100.00
2022-12-29T17:53:26.563Z,100.00
2022-12-29T17:56:12.549Z,100.00
2022-12-29T17:58:41.420Z,100.00
2022-12-29T18:01:15.552Z,100.00
2022-12-29T18:03:49.164Z,100.00
2022-12-29T18:06:19.074Z,100.00
2022-12-29T18:08:54.347Z,100.00
2022-12-29T18:11:34.568Z,100.00
2022-12-29T18:14:07.229Z,100.00
2022-12-29T18:16:36.827Z,100.00
2022-12-29T18:19:07.894Z,100.00
2022-12-29T18:21:44.635Z,100.00
2022-12-29T18:24:19.392Z,100.00
2022-12-29T18:26:59.451Z,100.00
2022-12-29T18:29:31.790Z,100.00
2022-12-29T18:32:04.304Z,100.00
2022-12-29T18:34:33.521Z,100.00
2022-12-29T18:37:04.104Z,100.00
2022-12-29T18:39:37.280Z,100.00
2022-12-29T18:42:21.934Z,100.00
2022-12-29T18:44:54.427Z,100.00
2022-12-29T18:47:23.746Z,100.00
2022-12-29T18:49:57.781Z,100.00
2022-12-29T18:52:30.929Z,100.00
2022-12-29T18:55:08.946Z,100.00
2022-12-29T18:57:46.572Z,100.00
2022-12-29T19:00:30.103Z,100.00
2022-12-29T19:03:07.398Z,100.00
2022-12-29T19:05:41.965Z,100.00
2022-12-29T19:08:10.814Z,100.00
2022-12-29T19:10:39.608Z,100.00
2022-12-29T19:13:13.818Z,100.00
2022-12-29T19:15:46.794Z,100.00
2022-12-29T19:18:44.233Z,100.00
2022-12-29T19:21:20.191Z,100.00
2022-12-29T19:24:01.039Z,100.00
2022-12-29T19:26:37.497Z,100.00
2022-12-29T19:29:14.771Z,100.00
2022-12-29T19:31:49.493Z,100.00
2022-12-29T19:34:20.100Z,100.00
2022-12-29T19:37:01.884Z,100.00
2022-12-29T19:39:38.355Z,100.00
2022-12-29T19:42:18.401Z,100.00
2022-12-29T19:44:58.998Z,100.00
2022-12-29T19:47:32.100Z,100.00
2022-12-29T19:50:17.758Z,100.00
2022-12-29T19:53:05.037Z,100.00
2022-12-29T19:55:41.064Z,100.00
2022-12-29T19:58:24.743Z,100.00
2022-12-29T20:01:06.485Z,100.00
2022-12-29T20:03:44.221Z,100.00
2022-12-29T20:06:16.411Z,100.00
2022-12-29T20:08:46.202Z,100.00
2022-12-29T20:11:19.672Z,100.00
2022-12-29T20:13:53.403Z,100.00
2022-12-29T20:16:29.846Z,100.00
2022-12-29T20:19:00.266Z,100.00
2022-12-29T20:21:37.824Z,100.00
2022-12-29T20:24:10.841Z,100.00
2022-12-29T20:26:47.492Z,100.00
2022-12-29T20:29:18.519Z,100.00
2022-12-29T20:31:50.795Z,100.00
2022-12-29T20:34:29.643Z,100.00
2022-12-29T20:36:58.778Z,100.00
2022-12-29T20:39:32.019Z,100.00
2022-12-29T20:42:06.319Z,100.00
2022-12-29T20:44:39.629Z,100.00
2022-12-29T20:47:12.803Z,100.00
2022-12-29T20:49:44.768Z,100.00
2022-12-29T20:52:16.025Z,100.00
2022-12-29T20:54:57.071Z,100.00
2022-12-29T20:57:35.245Z,100.00
2022-12-29T21:00:22.199Z,100.00
2022-12-29T21:03:08.601Z,100.00
2022-12-29T21:05:40.680Z,100.00
2022-12-29T21:08:19.103Z,100.00
2022-12-29T21:10:48.325Z,100.00
2022-12-29T21:13:20.006Z,100.00
2022-12-29T21:15:51.103Z,100.00
2022-12-29T21:18:23.846Z,100.00
2022-12-29T21:21:00.336Z,100.00
2022-12-29T21:23:31.484Z,100.00
2022-12-29T21:26:12.706Z,100.00
2022-12-29T21:28:49.170Z,100.00
2022-12-29T21:31:28.872Z,100.00
2022-12-29T21:34:02.650Z,100.00
2022-12-29T21:36:35.840Z,100.00
2022-12-29T21:39:05.826Z,100.00
2022-12-29T21:41:37.882Z,100.00
2022-12-29T21:44:25.019Z,100.00
2022-12-29T21:46:58.147Z,100.00
2022-12-29T21:49:41.641Z,100.00
2022-12-29T21:52:12.125Z,100.00
2022-12-29T21:55:03.195Z,100.00
2022-12-29T21:57:57.430Z,100.00
2022-12-29T22:00:44.739Z,100.00
2022-12-29T22:03:35.403Z,100.00
2022-12-29T22:06:31.332Z,100.00
2022-12-29T22:09:20.674Z,100.00
2022-12-29T22:12:07.071Z,100.00
2022-12-29T22:14:43.744Z,100.00
2022-12-29T22:17:21.185Z,100.00
2022-12-29T22:19:59.993Z,100.00
2022-12-29T22:22:36.110Z,100.00
2022-12-29T22:25:09.222Z,100.00
2022-12-29T22:27:40.481Z,100.00
2022-12-29T22:30:17.783Z,100.00
2022-12-29T22:32:47.204Z,100.00
2022-12-29T22:35:21.861Z,100.00
2022-12-29T22:37:58.953Z,100.00
2022-12-29T22:40:30.715Z,100.00
2022-12-29T22:43:06.637Z,100.00
2022-12-29T22:45:41.042Z,100.00
2022-12-29T22:48:10.888Z,100.00
2022-12-29T22:50:43.179Z,100.00
2022-12-29T22:53:19.163Z,100.00
2022-12-29T22:55:51.196Z,100.00
2022-12-29T22:58:21.035Z,100.00
2022-12-29T23:01:00.138Z,100.00
2022-12-29T23:03:30.930Z,100.00
2022-12-29T23:06:12.652Z,100.00
2022-12-29T23:08:50.113Z,100.00
2022-12-29T23:11:18.471Z,100.00
2022-12-29T23:13:50.081Z,100.00
2022-12-29T23:16:21.637Z,100.00
2022-12-29T23:18:51.761Z,100.00
2022-12-29T23:21:29.132Z,100.00
2022-12-29T23:24:05.902Z,100.00
2022-12-29T23:26:37.859Z,100.00
2022-12-29T23:29:10.735Z,100.00
2022-12-29T23:31:42.970Z,100.00
2022-12-29T23:34:20.331Z,100.00
2022-12-29T23:37:04.011Z,100.00
2022-12-29T23:39:51.357Z,100.00
2022-12-29T23:42:31.223Z,100.00
2022-12-29T23:45:07.585Z,100.00
2022-12-29T23:47:39.273Z,100.00
2022-12-29T23:50:18.323Z,100.00
2022-12-29T23:52:52.719Z,100.00
2022-12-29T23:55:26.134Z,100.00
2022-12-29T23:57:57.166Z,100.00
